PROFILE

 METAR AND TAF INFORMATION
ADDS - METARS form results

(2020 UTC 18 February 2019)
http://aviationweather.gov/metar/data/
 
OERK 182000Z 14008KT CAVOK 15/M04 Q1012 NOSIG
TAF OERK 181700Z 1818/1924 14008KT 7000 SCT040 SCT100 TEMPO 1818/1906 4000 DU BKN040 BECMG 1906/1908 29015G25KT TEMPO 1906/1918 2000 BLDU PROB40 TEMPO 1910/1916 0800 BLSA 

 AIRPORT MAP

 RUNWAY INFORMATION
Runway 15L Runway length 13796 ft Runway width 197 ft
Runway elevation 2033 ft Runway displaced threshold 0 ft Runway heading 150
Runway 33R Runway length 13796 ft Runway width 197 ft
Runway elevation 2012 ft Runway displaced threshold 0 ft Runway heading 330
Runway 15R Runway length 13796 ft Runway width 197 ft
Runway elevation 2049 ft Runway displaced threshold 0 ft Runway heading 150
Runway 33L Runway length 13796 ft Runway width 197 ft
Runway elevation 2033 ft Runway displaced threshold 0 ft Runway heading 330

 AIRPORT FREQUENCIES
Type APP Name RIYADH APP Frequency 120 MHZ
Type ATIS Name ATIS Frequency 127.15 MHZ
Type Ctrl Name Frequency 126 MHZ
Type GND Name GND Frequency 121.6 MHZ
Type TWR Name TWR Frequency 118.6 MHZ

 AIRPORT NEAR NAVIGATION AIDS
Type VORTAC Name King Khaled Frequency 113300 KHZ